createdAt,value
2022-11-27T00:00:17.693Z,5.43
2022-11-27T00:02:46.307Z,6.00
2022-11-27T00:05:14.904Z,5.90
2022-11-27T00:07:43.648Z,5.75
2022-11-27T00:10:14.192Z,6.30
2022-11-27T00:12:42.720Z,5.72
2022-11-27T00:15:16.942Z,6.07
2022-11-27T00:17:46.060Z,5.93
2022-11-27T00:20:15.349Z,5.65
2022-11-27T00:22:43.743Z,6.03
2022-11-27T00:25:13.705Z,6.18
2022-11-27T00:27:42.339Z,6.25
2022-11-27T00:30:11.769Z,6.32
2022-11-27T00:32:40.183Z,5.75
2022-11-27T00:35:09.514Z,6.05
2022-11-27T00:37:38.504Z,6.35
2022-11-27T00:40:08.691Z,5.55
2022-11-27T00:42:38.589Z,5.68
2022-11-27T00:45:07.814Z,5.63
2022-11-27T00:47:38.248Z,5.90
2022-11-27T00:50:07.905Z,6.03
2022-11-27T00:52:37.441Z,7.18
2022-11-27T00:55:06.641Z,6.05
2022-11-27T00:57:35.221Z,8.13
2022-11-27T01:00:06.067Z,6.90
2022-11-27T01:02:35.337Z,7.05
2022-11-27T01:05:03.860Z,7.60
2022-11-27T01:07:32.663Z,7.20
2022-11-27T01:10:01.132Z,7.18
2022-11-27T01:12:29.670Z,6.97
2022-11-27T01:14:58.319Z,6.93
2022-11-27T01:17:28.268Z,7.13
2022-11-27T01:19:56.810Z,7.25
2022-11-27T01:22:25.370Z,6.80
2022-11-27T01:24:53.878Z,5.75
2022-11-27T01:27:23.509Z,6.55
2022-11-27T01:29:52.137Z,6.70
2022-11-27T01:32:20.646Z,6.40
2022-11-27T01:34:50.888Z,6.72
2022-11-27T01:37:19.595Z,6.68
2022-11-27T01:39:48.130Z,6.40
2022-11-27T01:42:16.637Z,6.18
2022-11-27T01:44:53.680Z,6.35
2022-11-27T01:47:39.592Z,6.10
2022-11-27T01:50:15.327Z,6.15
2022-11-27T01:52:49.815Z,6.75
2022-11-27T01:55:25.000Z,6.45
2022-11-27T01:57:56.760Z,6.20
2022-11-27T02:00:26.451Z,7.03
2022-11-27T02:02:55.253Z,5.15
2022-11-27T02:05:28.951Z,5.70
2022-11-27T02:07:59.417Z,5.90
2022-11-27T02:10:37.651Z,6.25
2022-11-27T02:13:11.643Z,6.15
2022-11-27T02:15:48.662Z,6.18
2022-11-27T02:18:25.929Z,5.00
2022-11-27T02:21:05.910Z,5.88
2022-11-27T02:24:07.319Z,6.15
2022-11-27T02:27:12.201Z,5.88
2022-11-27T02:29:44.431Z,5.78
2022-11-27T02:32:21.539Z,5.72
2022-11-27T02:34:56.743Z,5.70
2022-11-27T02:37:34.212Z,6.05
2022-11-27T02:40:06.995Z,5.97
2022-11-27T02:42:40.855Z,5.18
2022-11-27T02:45:14.530Z,6.35
2022-11-27T02:47:46.446Z,5.72
2022-11-27T02:50:19.700Z,5.70
2022-11-27T02:52:51.701Z,6.03
2022-11-27T02:55:24.590Z,5.85
2022-11-27T02:57:57.452Z,6.13
2022-11-27T03:00:27.624Z,6.03
2022-11-27T03:03:00.858Z,6.47
2022-11-27T03:05:34.166Z,6.03
2022-11-27T03:08:08.763Z,6.78
2022-11-27T03:10:41.840Z,5.57
2022-11-27T03:13:10.518Z,5.60
2022-11-27T03:15:46.927Z,5.60
2022-11-27T03:18:24.152Z,7.05
2022-11-27T03:21:00.190Z,6.43
2022-11-27T03:23:29.941Z,6.38
2022-11-27T03:25:58.699Z,6.60
2022-11-27T03:28:30.239Z,5.57
2022-11-27T03:31:00.414Z,5.63
2022-11-27T03:33:29.225Z,6.72
2022-11-27T03:35:57.810Z,6.85
2022-11-27T03:38:27.493Z,5.80
2022-11-27T03:41:07.091Z,6.80
2022-11-27T03:43:43.632Z,6.45
2022-11-27T03:46:25.687Z,5.88
2022-11-27T03:49:04.411Z,5.93
2022-11-27T03:51:41.102Z,6.20
2022-11-27T03:54:18.069Z,5.80
2022-11-27T03:56:54.811Z,5.82
2022-11-27T03:59:27.459Z,6.85
2022-11-27T04:01:57.933Z,6.13
2022-11-27T04:04:27.183Z,6.22
2022-11-27T04:06:55.852Z,5.40
2022-11-27T04:09:25.608Z,5.47
2022-11-27T04:11:54.072Z,4.85
2022-11-27T04:14:22.627Z,6.32
2022-11-27T04:16:51.151Z,5.45
2022-11-27T04:19:21.135Z,5.95
2022-11-27T04:21:49.671Z,5.53
2022-11-27T04:24:18.510Z,6.55
2022-11-27T04:26:46.961Z,5.53
2022-11-27T04:29:15.629Z,5.90
2022-11-27T04:31:44.191Z,6.35
2022-11-27T04:34:12.755Z,6.30
2022-11-27T04:36:42.950Z,5.63
2022-11-27T04:39:13.556Z,5.72
2022-11-27T04:41:42.170Z,5.68
2022-11-27T04:44:10.792Z,5.47
2022-11-27T04:46:39.432Z,5.65
2022-11-27T04:49:08.000Z,6.18
2022-11-27T04:51:36.611Z,5.78
2022-11-27T04:54:06.726Z,5.70
2022-11-27T04:56:35.291Z,5.47
2022-11-27T04:59:03.769Z,5.15
2022-11-27T05:01:32.621Z,5.82
2022-11-27T05:04:01.184Z,6.53
2022-11-27T05:06:29.619Z,6.65
2022-11-27T05:09:02.179Z,5.47
2022-11-27T05:11:33.467Z,5.53
2022-11-27T05:14:18.640Z,4.72
2022-11-27T05:16:49.440Z,4.95
2022-11-27T05:19:19.771Z,5.40
2022-11-27T05:21:49.309Z,5.40
2022-11-27T05:24:19.879Z,6.03
2022-11-27T05:26:50.210Z,5.28
2022-11-27T05:29:18.910Z,5.30
2022-11-27T05:31:47.601Z,6.05
2022-11-27T05:34:16.361Z,4.95
2022-11-27T05:36:46.081Z,5.53
2022-11-27T05:39:14.310Z,5.30
2022-11-27T05:41:44.537Z,5.15
2022-11-27T05:44:16.680Z,4.95
2022-11-27T05:46:45.438Z,5.55
2022-11-27T05:49:16.201Z,5.18
2022-11-27T05:51:50.975Z,5.63
2022-11-27T05:54:22.797Z,5.05
2022-11-27T05:56:51.199Z,5.57
2022-11-27T05:59:21.590Z,5.53
2022-11-27T06:01:50.634Z,5.70
2022-11-27T06:04:19.860Z,5.30
2022-11-27T06:06:48.419Z,5.88
2022-11-27T06:09:16.906Z,5.10
2022-11-27T06:11:45.522Z,5.53
2022-11-27T06:14:13.979Z,5.60
2022-11-27T06:16:44.303Z,5.80
2022-11-27T06:19:12.864Z,5.38
2022-11-27T06:21:41.401Z,5.85
2022-11-27T06:24:09.892Z,5.82
2022-11-27T06:26:38.421Z,5.03
2022-11-27T06:29:07.049Z,5.82
2022-11-27T06:31:38.931Z,4.75
2022-11-27T06:34:09.493Z,5.63
2022-11-27T06:36:41.475Z,5.00
2022-11-27T06:39:12.348Z,5.55
2022-11-27T06:41:41.012Z,5.75
2022-11-27T06:44:11.381Z,5.75
2022-11-27T06:46:39.928Z,5.57
2022-11-27T06:49:11.605Z,5.20
2022-11-27T06:51:40.262Z,5.63
2022-11-27T06:54:08.914Z,5.63
2022-11-27T06:56:37.480Z,5.35
2022-11-27T06:59:06.439Z,5.93
2022-11-27T07:01:35.179Z,6.30
2022-11-27T07:04:03.778Z,6.05
2022-11-27T07:06:37.041Z,5.85
2022-11-27T07:09:06.458Z,6.13
2022-11-27T07:11:35.799Z,5.75
2022-11-27T07:14:06.485Z,6.07
2022-11-27T07:16:37.530Z,5.50
2022-11-27T07:19:08.227Z,5.90
2022-11-27T07:21:40.283Z,5.97
2022-11-27T07:24:09.510Z,6.05
2022-11-27T07:26:40.023Z,5.68
2022-11-27T07:29:08.777Z,4.57
2022-11-27T07:31:37.607Z,5.55
2022-11-27T07:34:11.706Z,5.45
2022-11-27T07:36:47.698Z,5.70
2022-11-27T07:39:25.267Z,5.35
2022-11-27T07:42:16.737Z,6.10
2022-11-27T07:44:51.764Z,5.85
2022-11-27T07:47:20.372Z,5.90
2022-11-27T07:49:48.940Z,5.18
2022-11-27T07:52:18.809Z,5.45
2022-11-27T07:54:47.345Z,5.18
2022-11-27T07:57:15.869Z,5.28
2022-11-27T07:59:47.323Z,5.60
2022-11-27T08:02:16.794Z,4.90
2022-11-27T08:04:45.578Z,6.07
2022-11-27T08:07:14.584Z,5.68
2022-11-27T08:09:44.788Z,6.18
2022-11-27T08:12:13.339Z,5.57
2022-11-27T08:14:42.099Z,5.55
2022-11-27T08:17:14.640Z,5.55
2022-11-27T08:19:43.322Z,5.28
2022-11-27T08:22:14.101Z,5.15
2022-11-27T08:24:44.177Z,5.57
2022-11-27T08:27:13.456Z,5.32
2022-11-27T08:29:43.251Z,5.38
2022-11-27T08:32:12.433Z,5.65
2022-11-27T08:34:43.908Z,5.63
2022-11-27T08:37:12.619Z,5.28
2022-11-27T08:39:43.667Z,5.07
2022-11-27T08:42:12.438Z,5.68
2022-11-27T08:44:41.255Z,5.13
2022-11-27T08:47:10.095Z,4.25
2022-11-27T08:49:45.930Z,5.07
2022-11-27T08:52:15.425Z,4.82
2022-11-27T08:54:45.432Z,5.18
2022-11-27T08:57:13.920Z,5.93
2022-11-27T08:59:45.324Z,4.32
2022-11-27T09:02:14.145Z,5.35
2022-11-27T09:04:42.826Z,4.82
2022-11-27T09:07:14.573Z,4.45
2022-11-27T09:09:44.835Z,5.03
2022-11-27T09:12:13.971Z,5.03
2022-11-27T09:14:44.848Z,4.47
2022-11-27T09:17:13.498Z,4.70
2022-11-27T09:19:44.595Z,4.70
2022-11-27T09:22:13.161Z,5.03
2022-11-27T09:24:42.193Z,4.97
2022-11-27T09:27:15.251Z,5.30
2022-11-27T09:29:43.794Z,5.63
2022-11-27T09:32:12.600Z,4.97
2022-11-27T09:34:41.435Z,5.38
2022-11-27T09:37:10.431Z,4.70
2022-11-27T09:39:39.220Z,4.50
2022-11-27T09:42:16.678Z,4.85
2022-11-27T09:44:52.309Z,4.97
2022-11-27T09:47:38.394Z,5.25
2022-11-27T09:50:15.820Z,5.30
2022-11-27T09:52:49.871Z,5.15
2022-11-27T09:55:25.484Z,4.57
2022-11-27T09:58:00.747Z,4.75
2022-11-27T10:00:31.096Z,4.85
2022-11-27T10:02:59.877Z,5.55
2022-11-27T10:05:34.803Z,5.28
2022-11-27T10:08:19.525Z,5.03
2022-11-27T10:11:02.051Z,4.75
2022-11-27T10:13:44.586Z,4.78
2022-11-27T10:16:27.722Z,4.68
2022-11-27T10:18:59.910Z,4.50
2022-11-27T10:21:37.696Z,4.63
2022-11-27T10:24:17.609Z,4.28
2022-11-27T10:26:48.449Z,4.60
2022-11-27T10:29:30.799Z,4.70
2022-11-27T10:32:05.443Z,4.15
2022-11-27T10:34:43.648Z,3.90
2022-11-27T10:37:19.199Z,3.97
2022-11-27T10:39:53.022Z,4.18
2022-11-27T10:42:26.216Z,3.33
2022-11-27T10:45:00.990Z,4.25
2022-11-27T10:47:33.846Z,3.30
2022-11-27T10:50:02.968Z,4.13
2022-11-27T10:52:31.401Z,3.63
2022-11-27T10:55:03.990Z,3.88
2022-11-27T10:57:59.355Z,3.83
2022-11-27T11:00:29.645Z,3.85
2022-11-27T11:03:03.777Z,3.90
2022-11-27T11:05:57.475Z,3.47
2022-11-27T11:08:26.653Z,3.33
2022-11-27T11:10:59.638Z,3.58
2022-11-27T11:13:28.701Z,3.47
2022-11-27T11:16:02.013Z,3.45
2022-11-27T11:18:34.730Z,3.83
2022-11-27T11:21:07.527Z,3.17
2022-11-27T11:23:40.248Z,3.10
2022-11-27T11:26:16.846Z,4.07
2022-11-27T11:28:52.286Z,3.80
2022-11-27T11:31:24.690Z,3.88
2022-11-27T11:33:59.951Z,3.60
2022-11-27T11:36:30.132Z,4.03
2022-11-27T11:38:59.812Z,3.67
2022-11-27T11:41:40.592Z,3.13
2022-11-27T11:44:26.508Z,4.13
2022-11-27T11:46:57.702Z,4.13
2022-11-27T11:49:29.244Z,3.55
2022-11-27T11:52:22.834Z,3.50
2022-11-27T11:55:01.503Z,4.25
2022-11-27T11:58:10.485Z,3.95
2022-11-27T12:01:19.465Z,4.45
2022-11-27T12:03:43.110Z,5.10
2022-11-27T12:06:32.818Z,4.30
2022-11-27T12:09:13.642Z,5.55
2022-11-27T12:11:50.747Z,5.10
2022-11-27T12:14:36.113Z,5.53
2022-11-27T12:17:19.033Z,4.90
2022-11-27T12:20:00.009Z,5.35
2022-11-27T12:22:50.394Z,5.07
2022-11-27T12:25:30.294Z,4.55
2022-11-27T12:28:13.254Z,3.42
2022-11-27T12:30:52.267Z,3.25
2022-11-27T12:33:42.808Z,2.45
2022-11-27T12:36:23.882Z,2.63
2022-11-27T12:39:11.029Z,1.90
2022-11-27T12:42:04.119Z,2.17
2022-11-27T12:44:47.884Z,2.70
2022-11-27T12:47:24.744Z,2.25
2022-11-27T12:50:00.862Z,3.00
2022-11-27T12:52:35.712Z,2.10
2022-11-27T12:55:15.075Z,2.53
2022-11-27T12:57:50.456Z,2.60
2022-11-27T13:00:24.323Z,2.70
2022-11-27T13:03:04.248Z,2.97
2022-11-27T13:05:39.787Z,2.97
2022-11-27T13:08:15.494Z,2.50
2022-11-27T13:10:53.664Z,2.40
2022-11-27T13:13:29.621Z,2.30
2022-11-27T13:16:04.203Z,2.58
2022-11-27T13:18:38.220Z,3.20
2022-11-27T13:21:11.302Z,4.95
2022-11-27T13:23:40.029Z,3.67
2022-11-27T13:26:20.708Z,4.57
2022-11-27T13:28:55.786Z,4.70
2022-11-27T13:31:27.143Z,5.15
2022-11-27T13:34:02.513Z,3.35
2022-11-27T13:36:38.784Z,2.97
2022-11-27T13:39:08.747Z,3.58
2022-11-27T13:41:41.437Z,2.58
2022-11-27T13:44:25.740Z,1.45
2022-11-27T13:46:59.594Z,1.55
2022-11-27T13:49:32.381Z,1.52
2022-11-27T13:52:12.462Z,1.95
2022-11-27T13:54:53.367Z,1.67
2022-11-27T13:57:24.572Z,1.30
2022-11-27T14:00:04.657Z,1.40
2022-11-27T14:02:44.752Z,2.00
2022-11-27T14:05:15.102Z,2.55
2022-11-27T14:07:46.911Z,1.60
2022-11-27T14:10:19.101Z,1.85
2022-11-27T14:12:57.427Z,1.33
2022-11-27T14:15:27.742Z,1.48
2022-11-27T14:18:06.981Z,1.40
2022-11-27T14:20:39.537Z,1.27
2022-11-27T14:23:13.138Z,1.30
2022-11-27T14:25:42.914Z,1.40
2022-11-27T14:28:18.260Z,1.40
2022-11-27T14:30:49.926Z,1.60
2022-11-27T14:33:21.037Z,2.05
2022-11-27T14:35:54.177Z,1.65
2022-11-27T14:38:24.649Z,1.45
2022-11-27T14:40:55.196Z,1.77
2022-11-27T14:43:27.488Z,1.90
2022-11-27T14:46:00.638Z,1.63
2022-11-27T14:48:33.579Z,1.88
2022-11-27T14:51:03.397Z,1.65
2022-11-27T14:53:32.928Z,1.60
2022-11-27T14:56:01.567Z,1.42
2022-11-27T14:58:31.800Z,1.88
2022-11-27T15:01:02.804Z,1.92
2022-11-27T15:03:32.473Z,1.73
2022-11-27T15:06:03.197Z,2.65
2022-11-27T15:08:35.651Z,2.10
2022-11-27T15:11:06.477Z,2.55
2022-11-27T15:13:38.871Z,2.67
2022-11-27T15:16:16.167Z,2.60
2022-11-27T15:18:49.853Z,2.58
2022-11-27T15:21:26.738Z,2.03
2022-11-27T15:23:57.546Z,2.35
2022-11-27T15:26:35.962Z,1.95
2022-11-27T15:29:06.104Z,2.15
2022-11-27T15:31:37.782Z,2.00
2022-11-27T15:34:22.131Z,2.53
2022-11-27T15:36:55.845Z,2.08
2022-11-27T15:39:26.716Z,2.45
2022-11-27T15:41:58.225Z,2.15
2022-11-27T15:44:29.707Z,2.20
2022-11-27T15:47:00.296Z,2.40
2022-11-27T15:49:29.469Z,2.33
2022-11-27T15:51:59.550Z,3.50
2022-11-27T15:54:28.169Z,2.50
2022-11-27T15:56:56.791Z,2.80
2022-11-27T15:59:29.554Z,2.90
2022-11-27T16:01:58.277Z,2.72
2022-11-27T16:04:27.298Z,2.55
2022-11-27T16:06:55.635Z,3.25
2022-11-27T16:09:24.313Z,2.95
2022-11-27T16:11:52.858Z,5.55
2022-11-27T16:14:21.603Z,2.90
2022-11-27T16:16:52.461Z,2.92
2022-11-27T16:19:21.808Z,4.10
2022-11-27T16:21:50.331Z,4.28
2022-11-27T16:24:18.868Z,3.70
2022-11-27T16:26:47.217Z,3.50
2022-11-27T16:29:15.649Z,6.72
2022-11-27T16:31:44.457Z,8.23
2022-11-27T16:34:18.138Z,12.52
2022-11-27T16:36:46.823Z,7.30
2022-11-27T16:39:15.668Z,12.93
2022-11-27T16:41:44.023Z,7.50
2022-11-27T16:44:15.222Z,10.65
2022-11-27T16:46:45.021Z,8.23
2022-11-27T16:49:13.551Z,3.38
2022-11-27T16:51:44.040Z,5.10
2022-11-27T16:54:15.067Z,4.85
2022-11-27T16:56:44.352Z,3.85
2022-11-27T16:59:15.346Z,3.50
2022-11-27T17:01:44.495Z,2.55
2022-11-27T17:04:18.753Z,3.47
2022-11-27T17:06:53.053Z,2.80
2022-11-27T17:09:23.111Z,4.03
2022-11-27T17:11:51.682Z,3.70
2022-11-27T17:14:21.221Z,3.78
2022-11-27T17:16:51.364Z,3.90
2022-11-27T17:19:34.498Z,4.30
2022-11-27T17:22:04.616Z,3.72
2022-11-27T17:24:35.898Z,3.50
2022-11-27T17:27:04.709Z,3.97
2022-11-27T17:29:34.066Z,4.30
2022-11-27T17:32:02.768Z,3.15
2022-11-27T17:34:31.444Z,3.30
2022-11-27T17:37:00.324Z,3.38
2022-11-27T17:39:30.360Z,3.28
2022-11-27T17:41:59.221Z,3.40
2022-11-27T17:44:27.984Z,3.72
2022-11-27T17:46:56.553Z,3.85
2022-11-27T17:49:24.843Z,3.72
2022-11-27T17:51:53.204Z,4.10
2022-11-27T17:54:21.719Z,3.60
2022-11-27T17:56:54.582Z,3.00
2022-11-27T17:59:23.413Z,3.40
2022-11-27T18:01:53.749Z,3.00
2022-11-27T18:04:23.405Z,3.90
2022-11-27T18:06:52.702Z,3.55
2022-11-27T18:09:21.153Z,3.80
2022-11-27T18:11:49.720Z,3.38
2022-11-27T18:14:19.658Z,4.75
2022-11-27T18:16:48.267Z,3.95
2022-11-27T18:19:17.213Z,3.90
2022-11-27T18:21:45.758Z,3.60
2022-11-27T18:24:22.951Z,3.58
2022-11-27T18:27:08.036Z,3.70
2022-11-27T18:29:40.336Z,3.22
2022-11-27T18:32:10.649Z,3.20
2022-11-27T18:34:40.430Z,3.00
2022-11-27T18:37:09.822Z,4.13
2022-11-27T18:39:39.964Z,3.72
2022-11-27T18:42:09.771Z,3.75
2022-11-27T18:44:45.187Z,3.65
2022-11-27T18:47:14.614Z,4.13
2022-11-27T18:49:44.587Z,4.93
2022-11-27T18:52:13.622Z,3.80
2022-11-27T18:54:42.113Z,5.75
2022-11-27T18:57:12.382Z,3.78
2022-11-27T18:59:45.054Z,3.20
2022-11-27T19:02:14.773Z,2.92
2022-11-27T19:04:45.047Z,3.20
2022-11-27T19:07:15.449Z,3.00
2022-11-27T19:09:44.163Z,2.63
2022-11-27T19:12:14.212Z,1.33
2022-11-27T19:14:46.505Z,1.63
2022-11-27T19:17:15.127Z,1.55
2022-11-27T19:19:54.168Z,1.80
2022-11-27T19:22:23.724Z,1.10
2022-11-27T19:24:52.314Z,1.20
2022-11-27T19:27:23.275Z,1.38
2022-11-27T19:29:54.495Z,1.60
2022-11-27T19:32:22.976Z,1.13
2022-11-27T19:34:54.529Z,1.38
2022-11-27T19:37:33.987Z,1.60
2022-11-27T19:40:06.893Z,1.83
2022-11-27T19:42:35.750Z,2.22
2022-11-27T19:45:06.618Z,1.75
2022-11-27T19:47:35.279Z,2.28
2022-11-27T19:50:04.226Z,2.10
2022-11-27T19:52:34.753Z,2.75
2022-11-27T19:55:03.236Z,2.33
2022-11-27T19:57:31.896Z,2.40
2022-11-27T20:00:00.489Z,2.78
2022-11-27T20:02:31.911Z,2.60
2022-11-27T20:05:00.312Z,2.00
2022-11-27T20:07:29.048Z,2.20
2022-11-27T20:09:57.739Z,2.00
2022-11-27T20:12:26.177Z,2.40
2022-11-27T20:14:54.700Z,2.70
2022-11-27T20:17:23.476Z,3.20
2022-11-27T20:19:53.385Z,4.20
2022-11-27T20:22:21.926Z,3.80
2022-11-27T20:25:17.326Z,3.30
2022-11-27T20:27:39.896Z,2.90
2022-11-27T20:30:10.404Z,3.20
2022-11-27T20:32:38.999Z,3.40
2022-11-27T20:35:10.117Z,3.22
2022-11-27T20:37:39.091Z,3.88
2022-11-27T20:40:09.527Z,5.93
2022-11-27T20:42:38.515Z,7.00
2022-11-27T20:45:08.239Z,6.70
2022-11-27T20:47:36.873Z,6.85
2022-11-27T20:50:09.403Z,4.72
2022-11-27T20:52:38.068Z,5.88
2022-11-27T20:55:08.022Z,5.55
2022-11-27T20:57:36.679Z,3.97
2022-11-27T21:00:07.844Z,4.63
2022-11-27T21:02:36.892Z,5.72
2022-11-27T21:05:05.907Z,5.70
2022-11-27T21:07:38.966Z,5.95
2022-11-27T21:10:09.273Z,5.88
2022-11-27T21:12:39.218Z,5.28
2022-11-27T21:15:09.739Z,5.40
2022-11-27T21:17:39.254Z,5.63
2022-11-27T21:20:09.399Z,6.05
2022-11-27T21:22:42.900Z,5.90
2022-11-27T21:25:11.925Z,5.43
2022-11-27T21:27:41.264Z,5.47
2022-11-27T21:30:10.855Z,5.07
2022-11-27T21:32:39.329Z,4.05
2022-11-27T21:35:08.727Z,4.03
2022-11-27T21:37:38.893Z,4.35
2022-11-27T21:40:09.795Z,4.00
2022-11-27T21:42:43.100Z,4.38
2022-11-27T21:45:13.312Z,4.78
2022-11-27T21:47:41.709Z,4.90
2022-11-27T21:50:14.180Z,3.63
2022-11-27T21:52:44.124Z,4.35
2022-11-27T21:55:12.631Z,4.15
2022-11-27T21:57:41.712Z,3.35
2022-11-27T22:00:11.168Z,3.90
2022-11-27T22:02:39.978Z,3.40
2022-11-27T22:05:09.978Z,3.65
2022-11-27T22:07:38.626Z,3.95
2022-11-27T22:10:11.454Z,3.63
2022-11-27T22:12:39.845Z,3.38
2022-11-27T22:15:09.315Z,3.47
2022-11-27T22:17:40.158Z,3.22
2022-11-27T22:20:10.670Z,3.55
2022-11-27T22:22:39.221Z,3.95
2022-11-27T22:25:10.169Z,3.45
2022-11-27T22:27:38.830Z,3.15
2022-11-27T22:30:08.872Z,3.40
2022-11-27T22:32:40.069Z,3.33
2022-11-27T22:35:09.266Z,3.30
2022-11-27T22:37:37.798Z,2.72
2022-11-27T22:40:08.426Z,3.58
2022-11-27T22:42:38.527Z,4.03
2022-11-27T22:45:08.887Z,3.90
2022-11-27T22:47:37.433Z,3.75
2022-11-27T22:50:07.594Z,3.97
2022-11-27T22:52:37.448Z,3.65
2022-11-27T22:55:06.633Z,3.40
2022-11-27T22:57:35.488Z,3.55
2022-11-27T23:00:10.107Z,3.00
2022-11-27T23:02:39.760Z,3.33
2022-11-27T23:05:08.691Z,4.32
2022-11-27T23:07:37.473Z,3.80
2022-11-27T23:10:06.759Z,3.15
2022-11-27T23:12:35.293Z,3.35
2022-11-27T23:15:05.892Z,3.10
2022-11-27T23:17:34.439Z,3.67
2022-11-27T23:20:02.905Z,3.42
2022-11-27T23:22:32.670Z,3.42
2022-11-27T23:25:01.207Z,3.05
2022-11-27T23:27:29.928Z,3.03
2022-11-27T23:29:58.458Z,3.10
2022-11-27T23:32:29.534Z,2.80
2022-11-27T23:34:58.153Z,3.30
2022-11-27T23:37:26.867Z,2.97
2022-11-27T23:39:55.181Z,3.22
2022-11-27T23:42:23.545Z,3.20
2022-11-27T23:44:51.913Z,2.78
2022-11-27T23:47:21.410Z,2.90
2022-11-27T23:49:51.759Z,3.45
2022-11-27T23:52:20.243Z,2.85
2022-11-27T23:54:48.949Z,2.72
2022-11-27T23:57:17.524Z,2.92
2022-11-27T23:59:46.327Z,2.85
